createdAt,value
2022-09-14T00:04:43.653Z,93.67
2022-09-14T00:09:45.557Z,93.78
2022-09-14T00:14:46.583Z,93.38
2022-09-14T00:19:47.163Z,94.38
2022-09-14T00:24:49.045Z,94.39
2022-09-14T00:29:49.640Z,94.49
2022-09-14T00:34:50.266Z,94.29
2022-09-14T00:39:52.267Z,94.05
2022-09-14T00:45:08.194Z,93.91
2022-09-14T00:50:10.465Z,93.96
2022-09-14T00:55:15.629Z,92.99
2022-09-14T01:00:18.575Z,92.81
2022-09-14T01:05:20.229Z,92.27
2022-09-14T01:10:38.777Z,92.08
2022-09-14T01:15:46.474Z,91.57
2022-09-14T01:20:53.793Z,91.42
2022-09-14T01:26:41.318Z,91.24
2022-09-14T01:31:50.320Z,91.21
2022-09-14T01:36:58.893Z,90.21
2022-09-14T01:42:01.470Z,90.52
2022-09-14T01:47:09.583Z,90.11
2022-09-14T01:52:13.980Z,90.09
2022-09-14T01:57:17.714Z,89.94
2022-09-14T02:02:25.188Z,89.99
2022-09-14T02:07:26.461Z,89.81
2022-09-14T02:12:27.243Z,89.90
2022-09-14T02:17:31.215Z,89.96
2022-09-14T02:22:32.539Z,90.25
2022-09-14T02:27:33.109Z,90.36
2022-09-14T02:32:41.721Z,90.88
2022-09-14T02:37:50.998Z,90.81
2022-09-14T02:43:02.061Z,90.99
2022-09-14T02:48:10.488Z,91.10
2022-09-14T02:53:14.698Z,91.52
2022-09-14T02:58:16.405Z,91.04
2022-09-14T03:03:21.441Z,90.73
2022-09-14T03:08:22.012Z,90.96
2022-09-14T03:13:23.198Z,90.58
2022-09-14T03:18:25.083Z,90.42
2022-09-14T03:23:25.645Z,90.12
2022-09-14T03:28:26.232Z,89.76
2022-09-14T03:33:28.174Z,89.91
2022-09-14T03:38:30.189Z,89.71
2022-09-14T03:43:31.029Z,89.83
2022-09-14T03:48:33.048Z,89.51
2022-09-14T03:53:34.386Z,89.58
2022-09-14T03:58:35.068Z,89.54
2022-09-14T04:03:37.639Z,89.44
2022-09-14T04:08:40.889Z,89.95
2022-09-14T04:13:42.253Z,90.03
2022-09-14T04:18:44.655Z,90.42
2022-09-14T04:24:10.566Z,87.90
2022-09-14T04:29:07.128Z,88.33
2022-09-14T04:34:09.031Z,89.10
2022-09-14T04:39:13.565Z,88.69
2022-09-14T04:44:14.524Z,89.82
2022-09-14T04:49:18.666Z,89.41
2022-09-14T04:54:19.766Z,89.37
2022-09-14T04:59:20.434Z,89.63
2022-09-14T05:04:22.384Z,90.32
2022-09-14T05:09:24.148Z,90.36
2022-09-14T05:14:24.910Z,89.56
2022-09-14T05:19:26.899Z,89.28
2022-09-14T05:24:28.772Z,89.16
2022-09-14T05:29:31.885Z,88.91
2022-09-14T05:34:33.867Z,88.76
2022-09-14T05:39:34.518Z,89.08
2022-09-14T05:44:35.162Z,88.16
2022-09-14T05:49:37.116Z,88.17
2022-09-14T05:54:37.709Z,87.86
2022-09-14T05:59:38.297Z,88.19
2022-09-14T06:04:40.182Z,87.62
2022-09-14T06:09:40.844Z,87.53
2022-09-14T06:14:41.736Z,87.37
2022-09-14T06:19:43.970Z,87.33
2022-09-14T06:24:44.777Z,86.62
2022-09-14T06:29:45.362Z,86.50
2022-09-14T06:34:47.390Z,85.33
2022-09-14T06:39:49.094Z,85.95
2022-09-14T06:44:49.749Z,86.36
2022-09-14T06:49:51.688Z,87.11
2022-09-14T06:54:52.325Z,87.08
2022-09-14T06:59:53.034Z,87.60
2022-09-14T07:04:55.536Z,87.94
2022-09-14T07:09:56.160Z,87.92
2022-09-14T07:14:56.788Z,88.48
2022-09-14T07:19:58.772Z,87.58
2022-09-14T07:24:59.334Z,87.50
2022-09-14T07:29:59.963Z,88.47
2022-09-14T07:35:01.861Z,89.16
2022-09-14T07:40:03.879Z,90.38
2022-09-14T07:45:05.034Z,90.99
2022-09-14T07:50:09.086Z,92.30
2022-09-14T07:55:12.552Z,92.71
2022-09-14T08:00:16.424Z,93.64
2022-09-14T08:05:20.131Z,92.31
2022-09-14T08:10:21.093Z,92.19
2022-09-14T08:15:27.701Z,92.12
2022-09-14T08:20:30.559Z,92.38
2022-09-14T08:25:31.416Z,92.20
2022-09-14T08:30:32.197Z,92.54
2022-09-14T08:35:56.511Z,93.42
2022-09-14T08:40:55.567Z,94.21
2022-09-14T08:46:04.121Z,94.52
2022-09-14T08:51:07.801Z,94.76
2022-09-14T08:56:18.928Z,95.46
2022-09-14T09:01:31.017Z,95.37
2022-09-14T09:06:42.015Z,96.07
2022-09-14T09:11:48.266Z,96.71
2022-09-14T09:16:51.475Z,96.30
2022-09-14T09:21:53.760Z,94.26
2022-09-14T09:26:54.371Z,96.48
2022-09-14T09:31:59.064Z,97.16
2022-09-14T09:37:38.621Z,96.29
2022-09-14T09:42:39.554Z,95.36
2022-09-14T09:47:42.940Z,93.74
2022-09-14T09:52:51.105Z,93.36
2022-09-14T09:57:52.262Z,93.13
2022-09-14T10:02:54.381Z,92.50
2022-09-14T10:07:59.378Z,91.89
2022-09-14T10:13:07.945Z,91.20
2022-09-14T10:18:16.696Z,90.34
2022-09-14T10:23:36.127Z,89.02
2022-09-14T10:28:36.796Z,88.69
2022-09-14T10:33:37.434Z,89.85
2022-09-14T10:38:44.052Z,90.06
2022-09-14T10:44:11.499Z,88.75
2022-09-14T10:49:31.892Z,89.99
2022-09-14T10:55:04.901Z,90.44
2022-09-14T11:00:13.249Z,92.20
2022-09-14T11:05:21.577Z,92.18
2022-09-14T11:10:35.597Z,92.62
2022-09-14T11:15:44.543Z,92.67
2022-09-14T11:20:58.779Z,94.39
2022-09-14T11:26:04.508Z,96.07
2022-09-14T11:31:12.443Z,97.28
2022-09-14T11:36:20.487Z,97.54
2022-09-14T11:41:27.737Z,98.28
2022-09-14T11:46:33.516Z,98.93
2022-09-14T11:51:40.776Z,98.79
2022-09-14T11:56:43.852Z,99.03
2022-09-14T12:01:44.453Z,98.65
2022-09-14T12:06:57.947Z,99.21
2022-09-14T12:12:00.819Z,98.84
2022-09-14T12:17:22.817Z,99.75
2022-09-14T12:22:33.923Z,100.00
2022-09-14T12:27:38.181Z,100.00
2022-09-14T12:32:43.747Z,100.00
2022-09-14T12:37:44.402Z,100.00
2022-09-14T12:42:46.540Z,100.00
2022-09-14T12:47:56.045Z,98.93
2022-09-14T12:53:14.599Z,99.04
2022-09-14T12:58:27.935Z,99.34
2022-09-14T13:03:48.685Z,100.00
2022-09-14T13:08:54.719Z,99.58
2022-09-14T13:13:57.330Z,97.58
2022-09-14T13:19:04.648Z,95.86
2022-09-14T13:24:19.687Z,94.57
2022-09-14T13:29:22.005Z,95.97
2022-09-14T13:34:25.697Z,96.21
2022-09-14T13:39:30.017Z,94.46
2022-09-14T13:44:35.625Z,94.84
2022-09-14T13:49:37.232Z,95.26
2022-09-14T13:54:37.865Z,95.92
2022-09-14T14:00:17.811Z,95.54
2022-09-14T14:05:24.715Z,95.35
2022-09-14T14:10:29.566Z,97.38
2022-09-14T14:15:42.690Z,98.34
2022-09-14T14:20:43.727Z,98.71
2022-09-14T14:25:47.455Z,99.25
2022-09-14T14:30:49.531Z,100.00
2022-09-14T14:35:52.787Z,100.00
2022-09-14T14:40:58.086Z,100.00
2022-09-14T14:46:02.088Z,100.00
2022-09-14T14:51:02.806Z,100.00
2022-09-14T14:56:03.716Z,100.00
2022-09-14T15:01:05.828Z,99.80
2022-09-14T15:06:15.528Z,98.13
2022-09-14T15:11:18.288Z,97.74
2022-09-14T15:16:20.284Z,97.22
2022-09-14T15:21:21.015Z,98.14
2022-09-14T15:26:21.627Z,98.22
2022-09-14T15:31:23.658Z,97.74
2022-09-14T15:36:39.431Z,98.39
2022-09-14T15:41:41.805Z,100.00
2022-09-14T15:46:45.275Z,100.00
2022-09-14T15:51:47.903Z,100.00
2022-09-14T15:56:50.547Z,100.00
2022-09-14T16:01:52.746Z,100.00
2022-09-14T16:06:53.559Z,100.00
2022-09-14T16:11:57.160Z,100.00
2022-09-14T16:17:01.620Z,100.00
2022-09-14T16:22:02.307Z,100.00
2022-09-14T16:27:02.923Z,100.00
2022-09-14T16:32:04.984Z,100.00
2022-09-14T16:37:05.696Z,100.00
2022-09-14T16:42:07.026Z,100.00
2022-09-14T16:47:09.118Z,100.00
2022-09-14T16:52:09.722Z,100.00
2022-09-14T16:57:10.387Z,100.00
2022-09-14T17:02:12.444Z,100.00
2022-09-14T17:07:13.109Z,100.00
2022-09-14T17:12:13.731Z,100.00
2022-09-14T17:17:15.916Z,100.00
2022-09-14T17:22:16.703Z,100.00
2022-09-14T17:27:18.738Z,100.00
2022-09-14T17:32:20.686Z,100.00
2022-09-14T17:37:21.291Z,100.00
2022-09-14T17:42:21.862Z,100.00
2022-09-14T17:47:24.342Z,100.00
2022-09-14T17:52:25.159Z,100.00
2022-09-14T17:57:25.741Z,100.00
2022-09-14T18:02:27.687Z,100.00
2022-09-14T18:07:29.819Z,100.00
2022-09-14T18:12:34.388Z,100.00
2022-09-14T18:17:36.318Z,100.00
2022-09-14T18:22:37.405Z,100.00
2022-09-14T18:27:37.975Z,100.00
2022-09-14T18:32:39.907Z,100.00
2022-09-14T18:37:40.484Z,100.00
2022-09-14T18:42:41.119Z,100.00
2022-09-14T18:47:43.050Z,100.00
2022-09-14T18:52:43.612Z,100.00
2022-09-14T18:57:46.444Z,100.00
2022-09-14T19:02:53.833Z,100.00
2022-09-14T19:07:54.530Z,100.00
2022-09-14T19:12:55.090Z,100.00
2022-09-14T19:17:57.052Z,100.00
2022-09-14T19:22:58.983Z,100.00
2022-09-14T19:27:59.586Z,100.00
2022-09-14T19:33:01.580Z,100.00
2022-09-14T19:38:02.218Z,100.00
2022-09-14T19:43:02.894Z,100.00
2022-09-14T19:48:05.212Z,100.00
2022-09-14T19:53:05.869Z,100.00
2022-09-14T19:58:06.454Z,100.00
2022-09-14T20:03:08.505Z,100.00
2022-09-14T20:08:09.292Z,100.00
2022-09-14T20:13:09.985Z,100.00
2022-09-14T20:18:11.957Z,100.00
2022-09-14T20:23:12.564Z,100.00
2022-09-14T20:28:13.155Z,100.00
2022-09-14T20:33:16.459Z,100.00
2022-09-14T20:38:17.037Z,100.00
2022-09-14T20:43:17.656Z,100.00
2022-09-14T20:48:19.583Z,100.00
2022-09-14T20:53:20.152Z,100.00
2022-09-14T20:58:20.734Z,100.00
2022-09-14T21:03:23.800Z,100.00
2022-09-14T21:08:24.370Z,100.00
2022-09-14T21:13:25.186Z,100.00
2022-09-14T21:18:27.051Z,100.00
2022-09-14T21:23:28.468Z,100.00
2022-09-14T21:28:29.282Z,100.00
2022-09-14T21:33:32.758Z,100.00
2022-09-14T21:38:33.474Z,100.00
2022-09-14T21:43:36.597Z,100.00
2022-09-14T21:48:39.049Z,100.00
2022-09-14T21:53:39.629Z,100.00
2022-09-14T21:58:40.502Z,100.00
2022-09-14T22:03:42.611Z,100.00
2022-09-14T22:08:43.840Z,100.00
2022-09-14T22:13:44.851Z,100.00
2022-09-14T22:18:53.192Z,100.00
2022-09-14T22:23:55.620Z,100.00
2022-09-14T22:28:56.765Z,100.00
2022-09-14T22:33:59.519Z,100.00
2022-09-14T22:39:01.043Z,100.00
2022-09-14T22:44:01.873Z,100.00
2022-09-14T22:49:03.839Z,100.00
2022-09-14T22:54:05.355Z,100.00
2022-09-14T22:59:07.546Z,100.00
2022-09-14T23:04:11.481Z,100.00
2022-09-14T23:09:14.846Z,100.00
2022-09-14T23:14:16.963Z,100.00
2022-09-14T23:19:19.654Z,100.00
2022-09-14T23:24:20.244Z,100.00
2022-09-14T23:29:20.809Z,100.00
2022-09-14T23:34:22.700Z,100.00
2022-09-14T23:39:23.273Z,100.00
2022-09-14T23:44:24.128Z,100.00
2022-09-14T23:49:26.049Z,100.00
2022-09-14T23:54:26.911Z,100.00
2022-09-14T23:59:27.524Z,100.00
